RYR464 LGZA-LGKR
Flight info
| Callsign | RYR464 |
|---|---|
| Flight time | 0h 38m |
| Altitude | 24000 |
| Route | OSDES Y302 GARTA L53 PARNA |
| Aircraft | B738/M-SDE2E3FGHIRWXY/LB1 |
Departure
| Time | 2026-04-21 11:03 |
|---|---|
| Airport | Zakynthos International Airport Dionysios Solomos (LGZA) |
Arrival
| Time | 2026-04-21 11:42 |
|---|---|
| Airport | Corfu Ioannis Kapodistrias International Airport (LGKR) |
| Time | Latitude | Longitude | Altitude | Speed | Heading |
|---|---|---|---|---|---|
| 2026-04-21 10:52 | 37.75487 | 20.88491 | 19 ft | 0 kts | 73° |
| 2026-04-21 10:57 | 37.75482 | 20.88472 | 20 ft | 3 kts | 67° |
| 2026-04-21 10:57 | 37.75473 | 20.88449 | 23 ft | 3 kts | 53° |
| 2026-04-21 10:57 | 37.75459 | 20.88431 | 21 ft | 3 kts | 34° |
| 2026-04-21 10:58 | 37.75442 | 20.88421 | 23 ft | 3 kts | 8° |
| 2026-04-21 10:58 | 37.75424 | 20.88421 | 21 ft | 1 kts | 343° |
| 2026-04-21 10:58 | 37.75423 | 20.88422 | 21 ft | 1 kts | 343° |
| 2026-04-21 11:00 | 37.75424 | 20.88421 | 21 ft | 0 kts | 343° |
| 2026-04-21 11:00 | 37.75442 | 20.88415 | 22 ft | 6 kts | 343° |
| 2026-04-21 11:00 | 37.75474 | 20.88356 | 22 ft | 11 kts | 289° |
| 2026-04-21 11:00 | 37.75531 | 20.88264 | 20 ft | 17 kts | 339° |
| 2026-04-21 11:01 | 37.75658 | 20.88216 | 22 ft | 20 kts | 343° |
| 2026-04-21 11:01 | 37.75800 | 20.88162 | 22 ft | 22 kts | 343° |
| 2026-04-21 11:01 | 37.75936 | 20.88110 | 20 ft | 19 kts | 343° |
| 2026-04-21 11:02 | 37.76060 | 20.88036 | 19 ft | 6 kts | 43° |
| 2026-04-21 11:02 | 37.76046 | 20.88072 | 19 ft | 6 kts | 171° |
| 2026-04-21 11:02 | 37.76006 | 20.88086 | 19 ft | 6 kts | 160° |
| 2026-04-21 11:02 | 37.75968 | 20.88101 | 20 ft | 6 kts | 164° |
| 2026-04-21 11:03 | 37.75755 | 20.88179 | 24 ft | 69 kts | 163° |
| 2026-04-21 11:03 | 37.75041 | 20.88443 | 19 ft | 141 kts | 165° |
| 2026-04-21 11:03 | 37.74017 | 20.88814 | 575 ft | 154 kts | 165° |
| 2026-04-21 11:03 | 37.72961 | 20.89229 | 1348 ft | 164 kts | 165° |
| 2026-04-21 11:04 | 37.71875 | 20.89624 | 2184 ft | 166 kts | 166° |
| 2026-04-21 11:04 | 37.70746 | 20.90032 | 2940 ft | 170 kts | 166° |
| 2026-04-21 11:04 | 37.69575 | 20.90454 | 3569 ft | 187 kts | 166° |
| 2026-04-21 11:04 | 37.68214 | 20.90944 | 3861 ft | 217 kts | 166° |
| 2026-04-21 11:05 | 37.66717 | 20.91488 | 4335 ft | 228 kts | 166° |
| 2026-04-21 11:05 | 37.65170 | 20.92052 | 4971 ft | 234 kts | 166° |
| 2026-04-21 11:05 | 37.63630 | 20.92614 | 5699 ft | 234 kts | 166° |
| 2026-04-21 11:05 | 37.62045 | 20.93191 | 6398 ft | 240 kts | 166° |
| 2026-04-21 11:06 | 37.60439 | 20.93776 | 7227 ft | 240 kts | 166° |
| 2026-04-21 11:06 | 37.58829 | 20.94361 | 7995 ft | 244 kts | 166° |
| 2026-04-21 11:06 | 37.57113 | 20.94609 | 8421 ft | 260 kts | 192° |
| 2026-04-21 11:06 | 37.55434 | 20.93625 | 8726 ft | 277 kts | 225° |
| 2026-04-21 11:07 | 37.54340 | 20.91638 | 9380 ft | 280 kts | 252° |
| 2026-04-21 11:07 | 37.54092 | 20.89229 | 10161 ft | 279 kts | 279° |
| 2026-04-21 11:07 | 37.54740 | 20.86875 | 10544 ft | 298 kts | 303° |
| 2026-04-21 11:07 | 37.56206 | 20.84886 | 10738 ft | 322 kts | 320° |
| 2026-04-21 11:08 | 37.58142 | 20.83374 | 11122 ft | 338 kts | 331° |
| 2026-04-21 11:08 | 37.60277 | 20.82061 | 11820 ft | 343 kts | 333° |
| 2026-04-21 11:08 | 37.62456 | 20.80799 | 12631 ft | 345 kts | 334° |
| 2026-04-21 11:08 | 37.64660 | 20.79540 | 13448 ft | 349 kts | 333° |
| 2026-04-21 11:09 | 37.66879 | 20.78266 | 14231 ft | 352 kts | 333° |
| 2026-04-21 11:09 | 37.69114 | 20.76973 | 15013 ft | 354 kts | 333° |
| 2026-04-21 11:09 | 37.71359 | 20.75663 | 15835 ft | 357 kts | 333° |
| 2026-04-21 11:09 | 37.73618 | 20.74337 | 16635 ft | 359 kts | 333° |
| 2026-04-21 11:10 | 37.75894 | 20.72994 | 17410 ft | 363 kts | 332° |
| 2026-04-21 11:10 | 37.78190 | 20.71636 | 18184 ft | 366 kts | 332° |
| 2026-04-21 11:10 | 37.80477 | 20.70280 | 18847 ft | 369 kts | 332° |
| 2026-04-21 11:10 | 37.82835 | 20.68880 | 19548 ft | 371 kts | 332° |
| 2026-04-21 11:11 | 37.85179 | 20.67486 | 20223 ft | 373 kts | 332° |
| 2026-04-21 11:11 | 37.87539 | 20.66082 | 20871 ft | 376 kts | 332° |
| 2026-04-21 11:11 | 37.89917 | 20.64666 | 21506 ft | 379 kts | 332° |
| 2026-04-21 11:11 | 37.92282 | 20.63257 | 22142 ft | 382 kts | 332° |
| 2026-04-21 11:12 | 37.94695 | 20.61817 | 22736 ft | 385 kts | 332° |
| 2026-04-21 11:12 | 37.97132 | 20.60363 | 23378 ft | 386 kts | 332° |
| 2026-04-21 11:12 | 37.99562 | 20.58912 | 23936 ft | 387 kts | 332° |
| 2026-04-21 11:12 | 38.01988 | 20.57464 | 24005 ft | 382 kts | 332° |
| 2026-04-21 11:13 | 38.04393 | 20.56026 | 24045 ft | 383 kts | 332° |
| 2026-04-21 11:13 | 38.06811 | 20.54579 | 24046 ft | 384 kts | 332° |
| 2026-04-21 11:13 | 38.09227 | 20.53132 | 24055 ft | 383 kts | 332° |
| 2026-04-21 11:13 | 38.11606 | 20.51705 | 24053 ft | 383 kts | 332° |
| 2026-04-21 11:14 | 38.14052 | 20.50238 | 24058 ft | 384 kts | 332° |
| 2026-04-21 11:14 | 38.16434 | 20.48808 | 24050 ft | 384 kts | 332° |
| 2026-04-21 11:14 | 38.18851 | 20.47356 | 24059 ft | 384 kts | 332° |
| 2026-04-21 11:14 | 38.21269 | 20.45903 | 24046 ft | 384 kts | 332° |
| 2026-04-21 11:15 | 38.23686 | 20.44448 | 24046 ft | 384 kts | 332° |
| 2026-04-21 11:15 | 38.26108 | 20.42990 | 24046 ft | 384 kts | 332° |
| 2026-04-21 11:15 | 38.28523 | 20.41535 | 24039 ft | 384 kts | 331° |
| 2026-04-21 11:15 | 38.30938 | 20.40079 | 24038 ft | 384 kts | 332° |
| 2026-04-21 11:16 | 38.33359 | 20.38618 | 24038 ft | 385 kts | 332° |
| 2026-04-21 11:16 | 38.35780 | 20.37156 | 24035 ft | 385 kts | 332° |
| 2026-04-21 11:16 | 38.38199 | 20.35694 | 24030 ft | 385 kts | 332° |
| 2026-04-21 11:16 | 38.40618 | 20.34231 | 24027 ft | 385 kts | 332° |
| 2026-04-21 11:17 | 38.43038 | 20.32767 | 24028 ft | 385 kts | 332° |
| 2026-04-21 11:17 | 38.45457 | 20.31302 | 24023 ft | 385 kts | 332° |
| 2026-04-21 11:17 | 38.47879 | 20.29833 | 24019 ft | 385 kts | 332° |
| 2026-04-21 11:17 | 38.50268 | 20.28384 | 24022 ft | 385 kts | 332° |
| 2026-04-21 11:18 | 38.52685 | 20.26917 | 24024 ft | 385 kts | 332° |
| 2026-04-21 11:18 | 38.55105 | 20.25447 | 24024 ft | 385 kts | 332° |
| 2026-04-21 11:18 | 38.57525 | 20.23976 | 24021 ft | 385 kts | 332° |
| 2026-04-21 11:18 | 38.59944 | 20.22504 | 24023 ft | 385 kts | 332° |
| 2026-04-21 11:19 | 38.62364 | 20.21030 | 24022 ft | 385 kts | 332° |
| 2026-04-21 11:19 | 38.64784 | 20.19556 | 24024 ft | 385 kts | 332° |
| 2026-04-21 11:19 | 38.67188 | 20.18092 | 24009 ft | 377 kts | 331° |
| 2026-04-21 11:19 | 38.69526 | 20.16668 | 24011 ft | 367 kts | 331° |
| 2026-04-21 11:20 | 38.71818 | 20.15270 | 24020 ft | 364 kts | 331° |
| 2026-04-21 11:20 | 38.74115 | 20.13865 | 24029 ft | 366 kts | 331° |
| 2026-04-21 11:20 | 38.76423 | 20.12451 | 23756 ft | 368 kts | 331° |
| 2026-04-21 11:20 | 38.78703 | 20.11056 | 23414 ft | 361 kts | 331° |
| 2026-04-21 11:21 | 38.80962 | 20.09674 | 22981 ft | 356 kts | 331° |
| 2026-04-21 11:21 | 38.83190 | 20.08309 | 22503 ft | 353 kts | 331° |
| 2026-04-21 11:21 | 38.85392 | 20.06959 | 22034 ft | 349 kts | 331° |
| 2026-04-21 11:21 | 38.87550 | 20.05634 | 21575 ft | 346 kts | 331° |
| 2026-04-21 11:22 | 38.89716 | 20.04304 | 21122 ft | 344 kts | 331° |
| 2026-04-21 11:22 | 38.91864 | 20.02983 | 20666 ft | 341 kts | 331° |
| 2026-04-21 11:22 | 38.94000 | 20.01670 | 20225 ft | 339 kts | 331° |
| 2026-04-21 11:22 | 38.96118 | 20.00366 | 19781 ft | 337 kts | 331° |
| 2026-04-21 11:23 | 38.98225 | 19.99068 | 19345 ft | 335 kts | 331° |
| 2026-04-21 11:23 | 39.00322 | 19.97776 | 18911 ft | 334 kts | 331° |
| 2026-04-21 11:23 | 39.02411 | 19.96487 | 18476 ft | 332 kts | 331° |
| 2026-04-21 11:23 | 39.04491 | 19.95204 | 17997 ft | 331 kts | 331° |
| 2026-04-21 11:24 | 39.06562 | 19.93925 | 17523 ft | 329 kts | 331° |
| 2026-04-21 11:24 | 39.08624 | 19.92651 | 17066 ft | 327 kts | 331° |
| 2026-04-21 11:24 | 39.10676 | 19.91383 | 16628 ft | 325 kts | 331° |
| 2026-04-21 11:24 | 39.12708 | 19.90126 | 16191 ft | 323 kts | 331° |
| 2026-04-21 11:25 | 39.14731 | 19.88873 | 15773 ft | 321 kts | 332° |
| 2026-04-21 11:25 | 39.16750 | 19.87623 | 15350 ft | 320 kts | 332° |
| 2026-04-21 11:25 | 39.18750 | 19.86383 | 14931 ft | 318 kts | 332° |
| 2026-04-21 11:25 | 39.20714 | 19.85165 | 14515 ft | 317 kts | 332° |
| 2026-04-21 11:26 | 39.22694 | 19.83936 | 14110 ft | 316 kts | 332° |
| 2026-04-21 11:26 | 39.24671 | 19.82708 | 13677 ft | 315 kts | 332° |
| 2026-04-21 11:26 | 39.26642 | 19.81483 | 13216 ft | 314 kts | 332° |
| 2026-04-21 11:26 | 39.28605 | 19.80263 | 12766 ft | 312 kts | 332° |
| 2026-04-21 11:27 | 39.30527 | 19.79067 | 12364 ft | 310 kts | 332° |
| 2026-04-21 11:27 | 39.32467 | 19.77859 | 11946 ft | 309 kts | 332° |
| 2026-04-21 11:27 | 39.34379 | 19.76669 | 11755 ft | 300 kts | 332° |
| 2026-04-21 11:27 | 39.36232 | 19.75515 | 11605 ft | 290 kts | 332° |
| 2026-04-21 11:28 | 39.38022 | 19.74400 | 11478 ft | 281 kts | 332° |
| 2026-04-21 11:28 | 39.39769 | 19.73351 | 11321 ft | 274 kts | 338° |
| 2026-04-21 11:28 | 39.41614 | 19.72720 | 11005 ft | 275 kts | 346° |
| 2026-04-21 11:28 | 39.43496 | 19.72298 | 10702 ft | 274 kts | 348° |
| 2026-04-21 11:29 | 39.45378 | 19.71911 | 10401 ft | 273 kts | 348° |
| 2026-04-21 11:29 | 39.47250 | 19.71520 | 10182 ft | 269 kts | 348° |
| 2026-04-21 11:29 | 39.49068 | 19.71130 | 10055 ft | 261 kts | 347° |
| 2026-04-21 11:29 | 39.50823 | 19.70742 | 9793 ft | 259 kts | 347° |
| 2026-04-21 11:30 | 39.52596 | 19.70342 | 9505 ft | 258 kts | 347° |
| 2026-04-21 11:30 | 39.54362 | 19.69940 | 9216 ft | 256 kts | 347° |
| 2026-04-21 11:30 | 39.56114 | 19.69537 | 8933 ft | 255 kts | 347° |
| 2026-04-21 11:30 | 39.57865 | 19.69134 | 8645 ft | 255 kts | 347° |
| 2026-04-21 11:31 | 39.59606 | 19.68731 | 8369 ft | 254 kts | 347° |
| 2026-04-21 11:31 | 39.61339 | 19.68329 | 8088 ft | 253 kts | 347° |
| 2026-04-21 11:31 | 39.62485 | 19.68063 | 7905 ft | 253 kts | 347° |
| 2026-04-21 11:31 | 39.64214 | 19.67661 | 7626 ft | 252 kts | 347° |
| 2026-04-21 11:32 | 39.66502 | 19.67129 | 7260 ft | 251 kts | 347° |
| 2026-04-21 11:32 | 39.68224 | 19.66729 | 6971 ft | 251 kts | 347° |
| 2026-04-21 11:32 | 39.69396 | 19.66516 | 6771 ft | 253 kts | 357° |
| 2026-04-21 11:32 | 39.71096 | 19.67013 | 6515 ft | 257 kts | 21° |
| 2026-04-21 11:33 | 39.72700 | 19.68070 | 6164 ft | 261 kts | 27° |
| 2026-04-21 11:33 | 39.74280 | 19.69241 | 5871 ft | 261 kts | 28° |
| 2026-04-21 11:33 | 39.75860 | 19.70420 | 5580 ft | 261 kts | 28° |
| 2026-04-21 11:33 | 39.77442 | 19.71581 | 5296 ft | 261 kts | 28° |
| 2026-04-21 11:34 | 39.79026 | 19.72726 | 5108 ft | 258 kts | 27° |
| 2026-04-21 11:34 | 39.80575 | 19.73839 | 4984 ft | 251 kts | 27° |
| 2026-04-21 11:34 | 39.82084 | 19.74921 | 4875 ft | 244 kts | 27° |
| 2026-04-21 11:34 | 39.83550 | 19.75971 | 4772 ft | 237 kts | 29° |
| 2026-04-21 11:35 | 39.84711 | 19.77392 | 4677 ft | 225 kts | 61° |
| 2026-04-21 11:35 | 39.85100 | 19.79267 | 4602 ft | 209 kts | 91° |
| 2026-04-21 11:35 | 39.84850 | 19.81071 | 4426 ft | 201 kts | 114° |
| 2026-04-21 11:35 | 39.84229 | 19.82673 | 4247 ft | 196 kts | 121° |
| 2026-04-21 11:36 | 39.83565 | 19.84208 | 4040 ft | 193 kts | 122° |
| 2026-04-21 11:36 | 39.82908 | 19.85724 | 3836 ft | 191 kts | 122° |
| 2026-04-21 11:36 | 39.82263 | 19.87218 | 3659 ft | 189 kts | 122° |
| 2026-04-21 11:36 | 39.81623 | 19.88706 | 3450 ft | 187 kts | 121° |
| 2026-04-21 11:37 | 39.80969 | 19.90157 | 3277 ft | 186 kts | 131° |
| 2026-04-21 11:37 | 39.79919 | 19.90987 | 3201 ft | 179 kts | 172° |
| 2026-04-21 11:37 | 39.78685 | 19.91147 | 3208 ft | 179 kts | 175° |
| 2026-04-21 11:37 | 39.77437 | 19.91317 | 3214 ft | 182 kts | 175° |
| 2026-04-21 11:38 | 39.76182 | 19.91484 | 3180 ft | 177 kts | 175° |
| 2026-04-21 11:38 | 39.74983 | 19.91650 | 3167 ft | 170 kts | 177° |
| 2026-04-21 11:38 | 39.73790 | 19.91618 | 2894 ft | 173 kts | 185° |
| 2026-04-21 11:38 | 39.72608 | 19.91505 | 2644 ft | 167 kts | 185° |
| 2026-04-21 11:39 | 39.71478 | 19.91395 | 2392 ft | 157 kts | 185° |
| 2026-04-21 11:39 | 39.70427 | 19.91296 | 2183 ft | 143 kts | 184° |
| 2026-04-21 11:39 | 39.69470 | 19.91211 | 1936 ft | 137 kts | 184° |
| 2026-04-21 11:39 | 39.68501 | 19.91127 | 1752 ft | 141 kts | 184° |
| 2026-04-21 11:40 | 39.67518 | 19.91043 | 1537 ft | 141 kts | 184° |
| 2026-04-21 11:40 | 39.66545 | 19.90960 | 1297 ft | 138 kts | 184° |
| 2026-04-21 11:40 | 39.65596 | 19.90880 | 1082 ft | 136 kts | 184° |
| 2026-04-21 11:40 | 39.64655 | 19.90799 | 906 ft | 136 kts | 184° |
| 2026-04-21 11:41 | 39.63737 | 19.90599 | 775 ft | 132 kts | 188° |
| 2026-04-21 11:41 | 39.62800 | 19.90549 | 520 ft | 138 kts | 171° |
| 2026-04-21 11:41 | 39.61844 | 19.90783 | 293 ft | 140 kts | 165° |
| 2026-04-21 11:41 | 39.60903 | 19.91031 | 59 ft | 134 kts | 166° |
| 2026-04-21 11:42 | 39.60056 | 19.91253 | 22 ft | 101 kts | 169° |
| 2026-04-21 11:42 | 39.59563 | 19.91379 | 19 ft | 53 kts | 168° |
| 2026-04-21 11:42 | 39.59284 | 19.91452 | 17 ft | 29 kts | 168° |
| 2026-04-21 11:42 | 39.59176 | 19.91512 | 17 ft | 8 kts | 180° |
| 2026-04-21 11:43 | 39.59184 | 19.91469 | 17 ft | 8 kts | 348° |
| 2026-04-21 11:43 | 39.59276 | 19.91449 | 17 ft | 21 kts | 351° |
| 2026-04-21 11:43 | 39.59452 | 19.91405 | 16 ft | 28 kts | 350° |
| 2026-04-21 11:43 | 39.59640 | 19.91356 | 18 ft | 27 kts | 348° |
| 2026-04-21 11:44 | 39.59816 | 19.91310 | 21 ft | 25 kts | 348° |
| 2026-04-21 11:44 | 39.59980 | 19.91268 | 22 ft | 23 kts | 348° |
| 2026-04-21 11:44 | 39.60140 | 19.91227 | 22 ft | 23 kts | 349° |
| 2026-04-21 11:44 | 39.60304 | 19.91186 | 19 ft | 25 kts | 349° |
| 2026-04-21 11:45 | 39.60486 | 19.91145 | 18 ft | 27 kts | 2° |
| 2026-04-21 11:45 | 39.60594 | 19.91225 | 18 ft | 14 kts | 72° |
| 2026-04-21 11:45 | 39.60584 | 19.91335 | 18 ft | 9 kts | 82° |
| 2026-04-21 11:45 | 39.60591 | 19.91376 | 18 ft | 0 kts | 79° |
| 2026-04-21 11:46 | 39.60591 | 19.91377 | 18 ft | 0 kts | 79° |